Time;durP1;ratioP1;P1;durP2;ratioP2;P2;SDS_P1;SDS_P2;PMS_P1;PMS_P2;Temp;Humidity;BMP_temperature;BMP_pressure;BME280_temperature;BME280_humidity;BME280_pressure;Samples;Min_cycle;Max_cycle;Signal;HPM_P1;HPM_P2
2023/08/16 00:01:17;;;;;;;45.33;40.80;;;17.00;99.90;;;;;;5049364;28;20071;-65
2023/08/16 00:03:46;;;;;;;45.67;41.03;;;17.00;99.90;;;;;;5049753;28;20041;-64
2023/08/16 00:06:13;;;;;;;44.55;40.17;;;16.50;99.90;;;;;;5049562;28;20044;-66
2023/08/16 00:08:40;;;;;;;50.92;38.17;;;16.40;99.90;;;;;;5049915;28;20060;-64
2023/08/16 00:11:05;;;;;;;76.53;37.28;;;16.40;99.90;;;;;;5048636;28;20084;-65
2023/08/16 00:13:32;;;;;;;82.65;38.35;;;16.90;99.90;;;;;;5053056;28;20429;-64
2023/08/16 00:15:57;;;;;;;177.40;40.88;;;16.60;99.90;;;;;;5053364;28;20045;-65
2023/08/16 00:18:23;;;;;;;133.68;39.63;;;16.80;99.90;;;;;;5049701;28;20070;-64
2023/08/16 00:20:48;;;;;;;83.38;35.92;;;16.50;99.90;;;;;;5049161;28;20411;-64
2023/08/16 00:23:14;;;;;;;46.13;38.95;;;17.00;99.90;;;;;;5048934;28;20049;-64
2023/08/16 00:25:40;;;;;;;113.10;41.33;;;16.70;99.90;;;;;;5048848;28;20033;-65
2023/08/16 00:28:05;;;;;;;184.82;39.78;;;16.40;99.90;;;;;;5051359;28;20040;-65
2023/08/16 00:30:31;;;;;;;161.07;40.58;;;16.10;99.90;;;;;;5052561;28;20036;-65
2023/08/16 00:32:57;;;;;;;93.38;37.42;;;16.40;99.90;;;;;;5052625;28;20431;-64
2023/08/16 00:35:22;;;;;;;58.72;38.20;;;15.80;99.90;;;;;;5052938;28;20036;-63
2023/08/16 00:37:48;;;;;;;47.38;39.17;;;16.10;99.90;;;;;;5053610;28;20033;-65
2023/08/16 00:40:15;;;;;;;88.88;36.35;;;15.80;99.90;;;;;;5053405;28;20268;-64
2023/08/16 00:42:41;;;;;;;52.40;36.97;;;15.50;99.90;;;;;;5047282;28;20045;-64
2023/08/16 00:45:07;;;;;;;39.75;35.70;;;15.40;99.90;;;;;;5053045;28;20086;-64
2023/08/16 00:47:34;;;;;;;40.58;37.47;;;15.70;99.90;;;;;;5052605;28;20043;-64
2023/08/16 00:50:00;;;;;;;40.90;37.88;;;15.80;99.90;;;;;;5051520;28;20037;-64
2023/08/16 00:52:26;;;;;;;41.80;38.75;;;15.40;99.90;;;;;;5051050;28;20047;-65
2023/08/16 00:54:52;;;;;;;40.22;37.33;;;15.40;99.90;;;;;;5052713;28;20040;-65
2023/08/16 00:57:17;;;;;;;37.40;34.70;;;16.00;99.90;;;;;;5057282;28;20090;-65
2023/08/16 00:59:44;;;;;;;41.78;37.67;;;15.50;99.90;;;;;;5052548;28;20068;-64
2023/08/16 01:02:12;;;;;;;78.90;37.25;;;16.10;99.90;;;;;;5052697;28;20045;-64
2023/08/16 01:04:38;;;;;;;84.93;37.50;;;16.40;99.90;;;;;;5065748;28;20043;-63
2023/08/16 01:07:04;;;;;;;81.70;36.47;;;15.60;99.90;;;;;;5053315;28;20470;-63
2023/08/16 01:09:30;;;;;;;93.60;35.88;;;15.50;99.90;;;;;;5052980;28;20090;-63
2023/08/16 01:12:20;;;;;;;196.50;40.10;;;15.90;99.90;;;;;;5061452;28;20039;-62
2023/08/16 01:15:00;;;;;;;350.52;43.20;;;15.50;99.90;;;;;;5052409;28;20048;-62
2023/08/16 01:17:26;;;;;;;268.30;41.03;;;15.60;99.90;;;;;;5053129;28;20037;-63
2023/08/16 01:19:56;;;;;;;133.55;38.55;;;15.60;99.90;;;;;;5052297;28;20521;-63
2023/08/16 01:22:52;;;;;;;354.23;44.22;;;16.00;99.90;;;;;;5052396;28;20059;-63
2023/08/16 01:25:42;;;;;;;449.00;44.83;;;15.90;99.90;;;;;;5050136;28;20445;-63
2023/08/16 01:28:09;;;;;;;242.05;39.33;;;16.10;99.90;;;;;;5045203;28;20102;-63
2023/08/16 01:30:35;;;;;;;417.23;42.03;;;15.70;99.90;;;;;;5052595;28;20072;-63
2023/08/16 01:33:08;;;;;;;149.00;37.83;;;15.40;99.90;;;;;;5051428;28;20036;-63
2023/08/16 01:35:34;;;;;;;156.02;39.30;;;15.60;99.90;;;;;;5052174;28;20033;-62
2023/08/16 01:38:01;;;;;;;186.07;38.55;;;15.70;99.90;;;;;;5052177;28;20069;-62
2023/08/16 01:40:30;;;;;;;418.60;44.80;;;15.30;99.90;;;;;;5051210;28;20059;-63
2023/08/16 01:42:56;;;;;;;372.65;41.33;;;15.90;99.90;;;;;;5052652;28;20045;-62
2023/08/16 01:45:24;;;;;;;179.63;39.10;;;15.40;99.90;;;;;;5058453;28;20029;-62
2023/08/16 01:47:51;;;;;;;242.75;39.17;;;15.30;99.90;;;;;;5051672;28;20065;-63
2023/08/16 01:50:17;;;;;;;194.80;36.63;;;15.40;99.90;;;;;;5051818;28;20029;-63
2023/08/16 01:52:43;;;;;;;190.75;35.95;;;15.90;99.90;;;;;;5050794;28;20101;-63
2023/08/16 01:55:08;;;;;;;93.10;35.17;;;15.20;99.90;;;;;;5051400;28;20052;-62
2023/08/16 01:57:34;;;;;;;175.75;33.88;;;15.90;99.90;;;;;;5051965;28;20036;-63
2023/08/16 01:59:59;;;;;;;154.48;36.47;;;15.80;99.90;;;;;;5050796;28;20064;-63
2023/08/16 02:02:25;;;;;;;65.47;33.90;;;15.80;99.90;;;;;;5051463;28;20475;-63
2023/08/16 02:04:50;;;;;;;44.70;34.85;;;15.70;99.90;;;;;;5051471;28;20072;-63
2023/08/16 02:07:16;;;;;;;35.67;33.08;;;15.90;99.90;;;;;;5051638;28;20041;-63
2023/08/16 02:09:42;;;;;;;39.55;36.65;;;15.20;99.90;;;;;;5051651;28;20112;-63
2023/08/16 02:12:07;;;;;;;37.50;34.70;;;15.60;99.90;;;;;;5051590;28;20052;-63
2023/08/16 02:14:33;;;;;;;37.88;35.17;;;16.00;99.90;;;;;;5051748;28;20499;-63
2023/08/16 02:16:59;;;;;;;37.92;35.15;;;16.00;99.90;;;;;;5051568;28;20036;-63
2023/08/16 02:19:24;;;;;;;42.55;39.15;;;16.10;99.90;;;;;;5043409;28;20044;-63
2023/08/16 02:21:50;;;;;;;192.15;38.10;;;15.40;99.90;;;;;;5050896;28;20041;-63
2023/08/16 02:24:15;;;;;;;38.25;35.55;;;16.10;99.90;;;;;;5051123;28;20040;-63
2023/08/16 02:26:41;;;;;;;316.77;36.17;;;15.80;99.90;;;;;;5051442;28;20037;-63
2023/08/16 02:29:06;;;;;;;206.55;32.00;;;15.40;99.90;;;;;;5051550;28;20076;-63
2023/08/16 02:31:32;;;;;;;122.20;32.63;;;16.00;99.90;;;;;;5051464;28;20048;-63
2023/08/16 02:33:58;;;;;;;280.70;35.47;;;15.90;99.90;;;;;;5051083;28;20041;-63
2023/08/16 02:36:24;;;;;;;276.13;36.45;;;15.30;99.90;;;;;;5051434;28;20045;-63
2023/08/16 02:38:49;;;;;;;456.17;41.85;;;16.10;99.90;;;;;;5050969;28;20037;-63
2023/08/16 02:41:15;;;;;;;384.30;35.67;;;15.70;99.90;;;;;;5050809;28;20060;-63
2023/08/16 02:43:40;;;;;;;356.80;32.75;;;15.50;99.90;;;;;;5050894;28;20478;-63
2023/08/16 02:46:06;;;;;;;284.73;32.03;;;16.20;99.90;;;;;;5051453;28;20037;-63
2023/08/16 02:48:31;;;;;;;232.20;31.73;;;16.20;99.90;;;;;;5050893;28;20044;-63
2023/08/16 02:50:58;;;;;;;333.35;34.70;;;15.30;99.90;;;;;;5050753;28;20048;-63
2023/08/16 02:53:23;;;;;;;345.02;35.15;;;15.40;99.90;;;;;;5050287;28;20445;-63
2023/08/16 02:55:49;;;;;;;341.45;33.03;;;16.00;99.90;;;;;;5050900;28;20060;-63
2023/08/16 02:58:14;;;;;;;475.98;37.33;;;15.40;99.90;;;;;;5048964;28;20537;-63
2023/08/16 03:00:40;;;;;;;255.32;33.92;;;16.00;99.90;;;;;;5050104;28;20418;-63
2023/08/16 03:03:06;;;;;;;225.45;31.48;;;16.00;99.90;;;;;;5050394;28;20756;-63
2023/08/16 03:05:31;;;;;;;361.83;34.40;;;15.40;99.90;;;;;;5050152;28;20045;-63
2023/08/16 03:07:57;;;;;;;295.90;33.78;;;16.10;99.90;;;;;;5050584;28;20044;-63
2023/08/16 03:10:23;;;;;;;269.95;36.13;;;15.20;99.90;;;;;;5050024;28;20036;-63
2023/08/16 03:12:48;;;;;;;221.88;32.67;;;15.90;99.90;;;;;;5049504;28;20077;-63
2023/08/16 03:15:14;;;;;;;221.90;30.70;;;15.50;99.90;;;;;;5050756;28;20047;-63
2023/08/16 03:17:39;;;;;;;33.08;30.45;;;15.00;99.90;;;;;;5050046;28;20045;-63
2023/08/16 03:20:07;;;;;;;32.53;30.13;;;15.20;99.90;;;;;;5049974;28;20139;-63
2023/08/16 03:22:33;;;;;;;32.58;30.17;;;15.50;99.90;;;;;;5049524;28;20483;-63
2023/08/16 03:24:59;;;;;;;33.17;30.73;;;15.30;99.90;;;;;;5050203;28;20043;-65
2023/08/16 03:27:24;;;;;;;33.88;31.48;;;15.30;99.90;;;;;;5050231;28;20316;-64
2023/08/16 03:29:50;;;;;;;35.42;32.17;;;15.30;99.90;;;;;;5050584;28;20033;-65
2023/08/16 03:32:15;;;;;;;50.22;32.08;;;15.00;99.90;;;;;;5049189;28;20040;-64
2023/08/16 03:34:42;;;;;;;266.52;41.05;;;15.20;99.90;;;;;;5049773;28;20058;-64
2023/08/16 03:37:08;;;;;;;200.52;38.47;;;15.00;99.90;;;;;;5049937;28;20409;-65
2023/08/16 03:39:33;;;;;;;142.43;35.17;;;14.80;99.90;;;;;;5050010;28;20041;-65
2023/08/16 03:41:59;;;;;;;37.00;34.22;;;15.00;99.90;;;;;;5049651;28;20040;-64
2023/08/16 03:44:24;;;;;;;33.67;31.15;;;14.80;99.90;;;;;;5052168;28;20052;-65
2023/08/16 03:46:50;;;;;;;38.97;35.92;;;15.40;99.90;;;;;;5049830;28;20029;-65
2023/08/16 03:49:16;;;;;;;38.67;35.97;;;15.20;99.90;;;;;;5049628;28;20033;-65
2023/08/16 03:51:42;;;;;;;38.47;35.53;;;15.00;99.90;;;;;;5049290;28;20045;-65
2023/08/16 03:54:07;;;;;;;36.75;34.15;;;15.00;99.90;;;;;;5049803;28;20071;-64
2023/08/16 03:56:33;;;;;;;67.90;33.28;;;15.10;99.90;;;;;;5049728;28;20077;-65
2023/08/16 03:58:58;;;;;;;102.65;32.78;;;15.60;99.90;;;;;;5042376;28;20538;-65
2023/08/16 04:01:24;;;;;;;101.28;32.60;;;15.40;99.90;;;;;;5049315;28;20045;-64
2023/08/16 04:03:50;;;;;;;154.35;31.67;;;15.40;99.90;;;;;;5049015;28;20095;-65
2023/08/16 04:06:19;;;;;;;95.95;34.05;;;15.50;99.90;;;;;;5049426;28;20091;-65
2023/08/16 04:08:45;;;;;;;104.60;35.78;;;15.20;99.90;;;;;;5049201;28;20495;-65
2023/08/16 04:11:10;;;;;;;251.73;37.60;;;14.70;99.90;;;;;;5049489;28;20143;-65
2023/08/16 04:13:36;;;;;;;231.80;37.33;;;15.50;99.90;;;;;;5050774;28;20083;-63
2023/08/16 04:16:02;;;;;;;298.38;39.08;;;14.70;99.90;;;;;;5041772;28;20087;-65
2023/08/16 04:18:28;;;;;;;109.75;36.15;;;15.50;99.90;;;;;;5050077;28;20037;-65
2023/08/16 04:20:54;;;;;;;172.27;36.00;;;15.20;99.90;;;;;;5049156;28;20132;-64
2023/08/16 04:23:21;;;;;;;132.95;36.78;;;15.40;99.90;;;;;;5048662;28;20029;-65
2023/08/16 04:25:47;;;;;;;305.40;42.35;;;15.20;99.90;;;;;;5049289;28;20375;-64
2023/08/16 04:28:12;;;;;;;259.15;43.58;;;14.60;99.90;;;;;;5049758;28;20040;-65
2023/08/16 04:30:38;;;;;;;129.57;37.92;;;15.20;99.90;;;;;;5049054;28;20037;-65
2023/08/16 04:33:03;;;;;;;163.70;39.30;;;14.80;99.90;;;;;;5048493;28;20079;-64
2023/08/16 04:35:29;;;;;;;106.53;36.47;;;15.30;99.90;;;;;;5049181;28;20044;-63
2023/08/16 04:37:55;;;;;;;105.15;36.42;;;15.30;99.90;;;;;;5049221;28;20104;-63
2023/08/16 04:40:20;;;;;;;125.47;37.50;;;15.60;99.90;;;;;;5049140;28;20041;-63
2023/08/16 04:42:46;;;;;;;154.82;37.00;;;14.50;99.90;;;;;;5064362;28;20095;-63
2023/08/16 04:45:12;;;;;;;51.05;36.70;;;14.50;99.90;;;;;;5050060;28;20065;-63
2023/08/16 04:47:37;;;;;;;65.82;35.45;;;15.20;99.90;;;;;;5049248;28;20341;-63
2023/08/16 04:50:06;;;;;;;47.10;34.38;;;14.60;99.90;;;;;;5049039;28;20543;-63
2023/08/16 04:52:35;;;;;;;47.60;34.95;;;15.40;99.90;;;;;;5048833;28;20411;-63
2023/08/16 04:55:01;;;;;;;47.65;33.95;;;15.30;99.90;;;;;;5046901;28;20083;-63
2023/08/16 04:57:27;;;;;;;56.50;34.83;;;14.60;99.90;;;;;;5048966;28;20502;-63
2023/08/16 04:59:52;;;;;;;40.38;37.00;;;14.70;99.90;;;;;;5053952;28;20537;-62
2023/08/16 05:02:18;;;;;;;37.42;33.85;;;14.70;99.90;;;;;;5048241;28;20045;-63
2023/08/16 05:04:43;;;;;;;37.47;34.00;;;15.30;99.90;;;;;;5047784;28;20102;-62
2023/08/16 05:07:09;;;;;;;38.60;35.35;;;15.40;99.90;;;;;;5049451;28;20040;-62
2023/08/16 05:09:35;;;;;;;37.42;34.72;;;15.80;99.90;;;;;;5049191;28;20025;-63
2023/08/16 05:12:02;;;;;;;37.70;34.83;;;14.90;99.90;;;;;;5047743;28;20049;-63
2023/08/16 05:14:27;;;;;;;39.60;36.55;;;15.10;99.90;;;;;;5048608;28;20037;-63
2023/08/16 05:16:53;;;;;;;42.03;38.75;;;15.50;99.90;;;;;;5050776;28;20572;-63
2023/08/16 05:19:18;;;;;;;40.97;37.83;;;15.30;99.90;;;;;;5048192;28;20098;-63
2023/08/16 05:21:44;;;;;;;38.08;35.17;;;15.80;99.90;;;;;;5049899;28;20521;-63
2023/08/16 05:24:10;;;;;;;38.55;35.30;;;16.40;99.90;;;;;;5050938;28;20529;-63
2023/08/16 05:26:35;;;;;;;38.92;35.75;;;15.40;99.90;;;;;;5049452;28;20449;-63
2023/08/16 05:29:01;;;;;;;39.83;37.03;;;15.50;99.90;;;;;;5052451;28;20055;-63
2023/08/16 05:31:26;;;;;;;40.60;37.50;;;15.50;99.90;;;;;;5050716;28;20048;-63
2023/08/16 05:33:52;;;;;;;36.22;33.60;;;16.50;99.90;;;;;;5068380;28;20056;-63
2023/08/16 05:36:18;;;;;;;35.10;32.50;;;16.70;99.90;;;;;;5052799;28;20444;-63
2023/08/16 05:38:43;;;;;;;33.70;31.20;;;16.70;99.90;;;;;;5051675;28;20625;-62
2023/08/16 05:41:09;;;;;;;40.40;36.78;;;16.50;99.90;;;;;;5048613;28;20040;-63
2023/08/16 05:43:34;;;;;;;35.90;33.13;;;16.30;99.90;;;;;;5053093;28;20044;-63
2023/08/16 05:46:00;;;;;;;39.92;36.60;;;17.30;99.90;;;;;;5049442;28;20041;-59
2023/08/16 05:48:26;;;;;;;42.55;39.15;;;17.00;99.90;;;;;;5051671;28;20174;-60
2023/08/16 05:50:51;;;;;;;42.97;39.33;;;17.10;99.90;;;;;;5050454;28;20385;-59
2023/08/16 05:53:17;;;;;;;43.58;39.97;;;16.40;99.90;;;;;;5052457;28;20032;-59
2023/08/16 05:55:42;;;;;;;39.40;36.20;;;17.00;99.90;;;;;;5050691;28;20572;-59
2023/08/16 05:58:08;;;;;;;42.58;38.90;;;16.80;99.90;;;;;;5050209;28;20064;-60
2023/08/16 06:00:34;;;;;;;39.00;35.85;;;17.70;99.90;;;;;;5049513;28;20053;-60
2023/08/16 06:03:00;;;;;;;41.10;37.80;;;17.80;99.90;;;;;;5051380;28;20171;-60
2023/08/16 06:05:26;;;;;;;37.90;34.80;;;17.60;99.90;;;;;;5049930;28;20123;-61
2023/08/16 06:07:51;;;;;;;36.05;33.35;;;18.10;99.90;;;;;;5053494;28;20119;-59
2023/08/16 06:10:17;;;;;;;39.50;36.05;;;18.30;99.90;;;;;;5050285;28;20452;-59
2023/08/16 06:12:43;;;;;;;41.63;37.72;;;18.10;99.90;;;;;;5045542;28;20051;-61
2023/08/16 06:15:11;;;;;;;39.08;35.83;;;18.50;99.90;;;;;;5049447;28;20127;-61
2023/08/16 06:17:40;;;;;;;40.35;36.75;;;17.90;99.90;;;;;;5048792;28;20040;-60
2023/08/16 06:20:07;;;;;;;40.08;36.65;;;18.60;99.90;;;;;;5053713;28;20033;-60
2023/08/16 06:22:34;;;;;;;39.80;36.35;;;17.90;99.90;;;;;;5055288;28;20033;-61
2023/08/16 06:25:00;;;;;;;38.40;35.30;;;19.00;99.90;;;;;;5050743;28;20025;-61
2023/08/16 06:27:25;;;;;;;41.65;37.90;;;19.10;99.90;;;;;;5048993;28;20483;-63
2023/08/16 06:29:51;;;;;;;40.55;37.05;;;19.20;99.90;;;;;;5048999;28;20040;-60
2023/08/16 06:32:17;;;;;;;43.05;39.28;;;19.10;99.90;;;;;;5044787;28;20046;-61
2023/08/16 06:34:42;;;;;;;42.88;39.08;;;18.50;99.90;;;;;;5050104;28;20045;-61
2023/08/16 06:37:08;;;;;;;44.03;40.03;;;18.20;99.90;;;;;;5040004;28;20033;-60
2023/08/16 06:39:33;;;;;;;44.15;40.20;;;19.50;99.90;;;;;;5049760;28;20182;-62
2023/08/16 06:41:59;;;;;;;45.28;41.22;;;19.50;99.90;;;;;;5049050;28;20037;-60
2023/08/16 06:44:26;;;;;;;45.83;41.88;;;18.80;99.90;;;;;;5047395;28;20892;-62
2023/08/16 06:46:51;;;;;;;46.97;42.22;;;18.60;99.90;;;;;;5051878;28;20040;-62
2023/08/16 06:49:17;;;;;;;45.97;41.75;;;18.70;99.90;;;;;;5051548;28;20028;-61
2023/08/16 06:51:42;;;;;;;43.80;39.75;;;18.70;99.90;;;;;;5051222;28;20033;-60
2023/08/16 06:54:08;;;;;;;46.80;42.60;;;18.70;99.90;;;;;;5054322;28;20076;-64
2023/08/16 06:56:33;;;;;;;47.88;43.30;;;19.50;99.90;;;;;;5054385;28;20560;-63
2023/08/16 06:58:59;;;;;;;45.97;41.50;;;19.10;99.90;;;;;;5054463;28;20495;-64
2023/08/16 07:01:25;;;;;;;46.42;42.17;;;19.70;99.90;;;;;;5057081;28;20445;-64
2023/08/16 07:03:50;;;;;;;46.05;41.80;;;20.00;99.90;;;;;;5053556;28;20419;-64
2023/08/16 07:06:16;;;;;;;42.95;39.10;;;19.70;99.90;;;;;;5054617;28;20186;-64
2023/08/16 07:08:41;;;;;;;46.03;41.88;;;19.40;99.90;;;;;;5051713;28;20406;-64
2023/08/16 07:11:07;;;;;;;41.85;37.85;;;20.00;99.90;;;;;;5055239;28;20044;-64
2023/08/16 07:13:33;;;;;;;41.85;38.13;;;20.20;99.90;;;;;;5053233;28;20037;-64
2023/08/16 07:15:59;;;;;;;41.78;38.08;;;20.40;99.90;;;;;;5053669;28;20099;-64
2023/08/16 07:18:24;;;;;;;41.90;38.20;;;20.20;99.90;;;;;;5060081;28;20470;-66
2023/08/16 07:20:50;;;;;;;36.85;33.78;;;20.60;99.90;;;;;;5044776;28;20072;-65
2023/08/16 07:23:16;;;;;;;36.97;33.88;;;20.80;99.90;;;;;;5047048;28;20091;-65
2023/08/16 07:25:42;;;;;;;30.65;27.80;;;21.00;99.90;;;;;;5045204;28;20119;-65
2023/08/16 07:28:08;;;;;;;32.85;30.05;;;20.70;99.90;;;;;;5049605;28;20037;-64
2023/08/16 07:30:37;;;;;;;27.27;24.90;;;21.60;99.90;;;;;;5059367;28;20052;-64
2023/08/16 07:33:04;;;;;;;25.27;22.95;;;21.60;99.90;;;;;;5055826;28;20107;-64
2023/08/16 07:35:30;;;;;;;26.90;24.60;;;22.00;99.90;;;;;;5055079;28;20033;-65
2023/08/16 07:37:56;;;;;;;26.48;24.17;;;22.30;99.90;;;;;;5048798;28;20041;-64
2023/08/16 07:40:22;;;;;;;25.30;22.98;;;22.20;99.90;;;;;;5050950;28;20407;-65
2023/08/16 07:42:47;;;;;;;25.48;23.05;;;22.80;99.90;;;;;;5049696;28;20076;-64
2023/08/16 07:45:13;;;;;;;23.80;21.67;;;22.80;99.90;;;;;;5041833;28;20484;-66
2023/08/16 07:47:38;;;;;;;16.67;15.27;;;23.10;99.90;;;;;;5044530;28;20033;-65
2023/08/16 07:50:05;;;;;;;18.73;16.83;;;23.30;99.90;;;;;;5057962;28;20127;-64
2023/08/16 07:52:30;;;;;;;18.95;17.25;;;23.50;99.90;;;;;;5044737;28;20131;-65
2023/08/16 07:54:56;;;;;;;19.50;17.80;;;23.80;99.90;;;;;;5046260;28;20409;-65
2023/08/16 07:57:21;;;;;;;17.88;16.17;;;23.80;99.90;;;;;;5046289;28;20033;-65
2023/08/16 07:59:47;;;;;;;17.00;15.50;;;23.90;99.90;;;;;;5038517;28;20083;-65
2023/08/16 08:02:12;;;;;;;18.77;17.08;;;24.20;99.90;;;;;;5045096;28;20055;-65
2023/08/16 08:04:38;;;;;;;19.45;17.73;;;24.40;99.90;;;;;;5046835;28;20044;-68
2023/08/16 08:07:04;;;;;;;18.60;16.85;;;24.70;1.00;;;;;;5045739;28;20033;-66
2023/08/16 08:09:31;;;;;;;17.30;15.73;;;24.90;99.90;;;;;;5045777;28;20037;-67
2023/08/16 08:11:57;;;;;;;20.35;18.67;;;25.20;99.90;;;;;;5049891;28;20044;-67
2023/08/16 08:14:22;;;;;;;22.95;20.95;;;25.30;99.90;;;;;;5050420;28;20037;-67
2023/08/16 08:16:49;;;;;;;21.80;19.73;;;25.40;99.90;;;;;;5047828;28;20083;-68
2023/08/16 08:19:15;;;;;;;21.38;19.38;;;25.10;99.90;;;;;;5048426;28;20429;-66
2023/08/16 08:21:40;;;;;;;26.77;24.02;;;24.80;1.00;;;;;;5050142;28;20051;-65
2023/08/16 08:24:06;;;;;;;23.67;21.52;;;24.60;99.90;;;;;;5047555;28;20063;-67
2023/08/16 08:26:32;;;;;;;23.48;21.05;;;24.40;99.90;;;;;;5045360;28;20062;-66
2023/08/16 08:28:57;;;;;;;23.88;21.67;;;24.10;1.00;;;;;;5046437;28;20036;-66
2023/08/16 08:31:23;;;;;;;25.63;23.38;;;24.00;1.00;;;;;;5047041;28;20032;-67
2023/08/16 08:33:49;;;;;;;22.67;20.80;;;24.00;1.00;;;;;;5051464;28;20037;-67
2023/08/16 08:36:15;;;;;;;26.73;24.17;;;24.00;1.00;;;;;;5051330;28;20172;-67
2023/08/16 08:38:42;;;;;;;22.27;20.20;;;24.10;1.00;;;;;;5044999;28;20550;-65
2023/08/16 08:41:08;;;;;;;22.60;20.80;;;24.30;1.00;;;;;;5042448;28;20045;-68
2023/08/16 08:43:36;;;;;;;19.15;17.55;;;24.40;99.90;;;;;;5047384;28;20075;-67
2023/08/16 08:46:03;;;;;;;23.67;21.67;;;24.60;99.90;;;;;;5045235;28;20041;-67
2023/08/16 08:48:29;;;;;;;20.75;18.85;;;24.70;99.90;;;;;;5047356;28;20127;-67
2023/08/16 08:50:56;;;;;;;19.60;17.60;;;24.70;99.90;;;;;;5051110;28;20502;-66
2023/08/16 08:53:25;;;;;;;22.08;20.23;;;25.10;99.90;;;;;;5051521;28;20072;-67
2023/08/16 08:55:52;;;;;;;21.50;19.67;;;25.40;99.90;;;;;;5053203;28;20037;-68
2023/08/16 08:58:19;;;;;;;18.15;16.70;;;25.50;99.90;;;;;;5050304;28;20068;-68
2023/08/16 09:00:46;;;;;;;18.13;16.55;;;25.50;99.90;;;;;;5052335;28;20052;-68
2023/08/16 09:03:13;;;;;;;21.20;19.48;;;25.90;45.50;;;;;;5049338;28;20057;-68
2023/08/16 09:05:40;;;;;;;24.40;22.33;;;26.20;1.00;;;;;;5052109;28;20056;-67
2023/08/16 09:08:07;;;;;;;22.88;20.90;;;25.60;1.00;;;;;;5052568;28;20033;-66
2023/08/16 09:10:37;;;;;;;24.58;22.02;;;25.40;1.00;;;;;;5047191;28;20080;-65
2023/08/16 09:13:05;;;;;;;22.58;20.88;;;25.00;1.00;;;;;;5052108;28;20080;-67
2023/08/16 09:15:30;;;;;;;24.48;22.30;;;24.60;1.00;;;;;;5046483;28;20049;-65
2023/08/16 09:18:06;;;;;;;24.52;22.45;;;24.30;1.00;;;;;;5055327;28;20406;-66
2023/08/16 09:20:32;;;;;;;23.33;21.27;;;24.20;1.00;;;;;;5050154;28;20214;-66
2023/08/16 09:22:58;;;;;;;21.50;19.70;;;23.30;1.00;;;;;;5051994;28;20691;-67
2023/08/16 09:25:24;;;;;;;22.60;20.48;;;24.10;1.00;;;;;;5051425;28;20037;-66
2023/08/16 09:27:52;;;;;;;19.80;18.15;;;24.40;1.00;;;;;;5050089;28;20048;-65
2023/08/16 09:30:18;;;;;;;16.83;14.68;;;24.70;1.00;;;;;;5047665;28;20048;-67
2023/08/16 09:32:45;;;;;;;15.77;14.18;;;25.10;1.00;;;;;;5053194;28;20033;-67
2023/08/16 09:35:16;;;;;;;12.20;10.98;;;25.60;1.00;;;;;;5082136;28;20036;-66
2023/08/16 09:37:42;;;;;;;14.35;13.00;;;25.90;1.00;;;;;;5050670;28;20061;-66
2023/08/16 09:40:11;;;;;;;15.68;14.38;;;26.40;99.90;;;;;;5045552;28;20403;-67
2023/08/16 09:42:37;;;;;;;20.15;18.65;;;26.70;99.90;;;;;;5047273;28;20048;-67
2023/08/16 09:45:03;;;;;;;27.70;25.73;;;26.80;99.90;;;;;;5049964;28;20402;-65
2023/08/16 09:47:30;;;;;;;83.05;76.80;;;26.50;99.90;;;;;;5048096;28;20048;-67
2023/08/16 09:49:57;;;;;;;102.32;94.47;;;26.00;99.90;;;;;;5047264;28;20082;-68
2023/08/16 09:52:23;;;;;;;139.90;128.98;;;25.60;99.90;;;;;;5049112;28;20095;-67
2023/08/16 09:54:50;;;;;;;228.13;210.82;;;25.50;99.90;;;;;;5050226;28;20036;-67
2023/08/16 09:57:16;;;;;;;222.07;205.25;;;25.70;99.90;;;;;;5052806;28;20036;-66
2023/08/16 09:59:43;;;;;;;236.07;218.02;;;25.80;99.90;;;;;;5047944;28;20048;-65
2023/08/16 10:02:12;;;;;;;199.27;184.80;;;25.80;99.90;;;;;;5045897;28;20044;-67
2023/08/16 10:04:39;;;;;;;256.45;236.27;;;25.90;99.90;;;;;;5049136;28;20040;-65
2023/08/16 10:07:06;;;;;;;285.30;261.70;;;25.80;99.90;;;;;;5050199;28;20094;-67
2023/08/16 10:09:33;;;;;;;220.73;203.32;;;25.60;99.90;;;;;;5050700;28;20053;-66
2023/08/16 10:12:04;;;;;;;191.02;176.95;;;25.40;99.90;;;;;;5049316;28;20045;-65
2023/08/16 10:14:31;;;;;;;191.07;177.38;;;25.40;99.90;;;;;;5050311;28;20493;-65
2023/08/16 10:17:03;;;;;;;178.15;165.48;;;25.30;99.90;;;;;;5049721;28;20032;-66
2023/08/16 10:19:38;;;;;;;156.40;145.70;;;25.20;99.90;;;;;;5046645;28;20506;-66
2023/08/16 10:22:13;;;;;;;126.75;118.65;;;25.20;99.90;;;;;;5044265;28;20044;-65
2023/08/16 10:24:39;;;;;;;158.90;147.52;;;25.20;99.90;;;;;;5044305;28;20114;-64
2023/08/16 10:27:08;;;;;;;131.07;122.50;;;25.10;99.90;;;;;;5050978;28;20048;-62
2023/08/16 10:29:40;;;;;;;141.93;132.38;;;25.00;99.90;;;;;;5045871;28;20052;-62
2023/08/16 10:32:11;;;;;;;105.97;99.47;;;25.00;99.90;;;;;;5045365;28;20085;-63
2023/08/16 10:34:38;;;;;;;158.90;147.70;;;25.30;99.90;;;;;;5044900;28;20190;-62
2023/08/16 10:37:05;;;;;;;114.05;106.25;;;25.00;99.90;;;;;;5049589;28;20040;-62
2023/08/16 10:39:30;;;;;;;148.63;138.20;;;25.10;99.90;;;;;;5048600;28;20049;-62
2023/08/16 10:42:05;;;;;;;119.43;111.68;;;25.10;99.90;;;;;;5049873;28;20095;-62
2023/08/16 10:44:30;;;;;;;128.13;119.45;;;25.10;99.90;;;;;;5047241;28;20368;-61
2023/08/16 10:46:56;;;;;;;125.25;116.95;;;25.00;99.90;;;;;;5048230;28;20116;-61
2023/08/16 10:49:22;;;;;;;111.13;103.25;;;25.00;99.90;;;;;;5043683;28;20136;-61
2023/08/16 10:51:51;;;;;;;131.65;122.13;;;24.90;99.90;;;;;;5048459;28;20079;-62
2023/08/16 10:54:17;;;;;;;116.90;108.95;;;24.80;99.90;;;;;;5042885;28;20041;-62
2023/08/16 10:56:44;;;;;;;99.72;93.07;;;24.80;99.90;;;;;;5046124;28;20076;-62
2023/08/16 10:59:12;;;;;;;117.72;109.50;;;24.70;99.90;;;;;;5030664;28;20068;-63
2023/08/16 11:01:50;;;;;;;127.90;118.43;;;24.50;99.90;;;;;;5048736;28;20102;-65
2023/08/16 11:04:16;;;;;;;128.35;118.80;;;24.50;99.90;;;;;;5043440;28;20146;-62
2023/08/16 11:06:43;;;;;;;107.10;99.63;;;24.50;99.90;;;;;;5048002;28;20037;-61
2023/08/16 11:09:09;;;;;;;102.43;95.45;;;24.60;99.90;;;;;;5054722;28;20041;-65
2023/08/16 11:11:35;;;;;;;114.25;106.30;;;24.60;99.90;;;;;;5044917;28;20422;-61
2023/08/16 11:14:00;;;;;;;108.78;101.00;;;24.40;99.90;;;;;;5049831;28;20040;-62
2023/08/16 11:16:27;;;;;;;104.18;96.85;;;24.50;99.90;;;;;;5046265;28;20094;-62
2023/08/16 11:18:53;;;;;;;118.50;109.35;;;24.50;99.90;;;;;;5049177;28;20032;-62
2023/08/16 11:21:19;;;;;;;109.68;102.10;;;24.50;99.90;;;;;;5052401;28;20319;-63
2023/08/16 11:23:45;;;;;;;111.63;103.43;;;24.50;99.90;;;;;;5046459;28;21405;-61
2023/08/16 11:26:10;;;;;;;101.80;94.40;;;24.60;99.90;;;;;;5048608;28;20052;-62
2023/08/16 11:28:38;;;;;;;106.57;98.78;;;24.60;99.90;;;;;;5044520;28;20060;-63
2023/08/16 11:31:06;;;;;;;110.53;102.40;;;24.50;99.90;;;;;;5052737;28;20494;-62
2023/08/16 11:33:39;;;;;;;103.15;96.25;;;24.60;99.90;;;;;;5049429;28;20033;-64
2023/08/16 11:36:08;;;;;;;111.68;103.38;;;24.60;99.90;;;;;;5084855;28;20060;-65
2023/08/16 11:38:34;;;;;;;111.30;103.15;;;24.60;99.90;;;;;;5053038;28;20028;-65
2023/08/16 11:41:00;;;;;;;105.85;98.22;;;24.60;99.90;;;;;;5051131;28;20037;-65
2023/08/16 11:43:31;;;;;;;107.53;99.95;;;24.70;99.90;;;;;;5046278;28;20071;-65
2023/08/16 11:45:58;;;;;;;122.22;112.80;;;24.70;99.90;;;;;;5046842;28;20044;-65
2023/08/16 11:48:25;;;;;;;116.78;108.43;;;24.60;99.90;;;;;;5049315;28;20042;-65
2023/08/16 11:50:51;;;;;;;118.93;109.82;;;24.50;99.90;;;;;;5052486;28;20041;-65
2023/08/16 11:53:19;;;;;;;104.00;96.47;;;24.60;99.90;;;;;;5053877;28;20140;-64
2023/08/16 11:55:59;;;;;;;114.20;105.20;;;24.60;99.90;;;;;;5044488;28;20041;-64
2023/08/16 11:58:25;;;;;;;122.78;113.28;;;24.50;99.90;;;;;;5046455;28;20127;-65
2023/08/16 12:00:51;;;;;;;114.60;105.72;;;24.50;99.90;;;;;;5046956;28;20047;-64
2023/08/16 12:03:17;;;;;;;90.35;84.10;;;24.30;99.90;;;;;;5050128;28;20045;-65
2023/08/16 12:05:48;;;;;;;100.65;93.50;;;24.30;99.90;;;;;;5047031;28;20111;-65
2023/08/16 12:08:21;;;;;;;112.43;104.03;;;24.30;99.90;;;;;;5051134;28;20041;-65
2023/08/16 12:10:56;;;;;;;91.22;85.22;;;24.30;99.90;;;;;;5048654;28;20051;-65
2023/08/16 12:13:23;;;;;;;87.45;81.50;;;24.20;99.90;;;;;;5048696;28;21614;-65
2023/08/16 12:15:49;;;;;;;99.68;92.63;;;24.30;99.90;;;;;;5051025;28;20045;-65
2023/08/16 12:18:16;;;;;;;68.60;64.05;;;24.40;99.90;;;;;;5048517;28;20505;-64
2023/08/16 12:20:42;;;;;;;92.43;86.43;;;24.40;99.90;;;;;;5050904;28;20044;-64